x

Sentry Shoal (46131) Wave Buoy

2:00 - Sun 30th Apr 2017 All times are PDT. -7 hours from GMT.

  • Sig Wave height 2.0ft
  • Peak Period 4s
  • Wind
    2mph, 4mph gusts
  • Sea Temp 50°f
  • Aire Temp 46°f
  • Sea Pressure 1017.6mb
  • Sentry Shoal
  • Sentry Shoal

More Historic Weather Station data

Upgrade to MSW Pro to gain access to the past 30 days of data for over 8000 Wavebouys and Weather Stations around the globe.

Join Pro

Comparision Forecast

View Surf forecast
   
dom 04/30 2:00 2ft 4s 2 4 mph 1017.6mb 50f 46f
1:00 2.5ft 4s 4 7 mph 1016.7mb 50f 45f
12:00 2.5ft 5s 9 13 mph 1016.4mb 50f 48f
sáb 04/29 11:00 3ft 4s 13 16 mph 1015.9mb 50f 48f
10:00 3.5ft 5s 16 20 mph 1015.7mb 50f 49f
9:00 4.5ft 5s 22 29 mph 1015.5mb 50f 50f
8:00 4.5ft 5s 25 31 mph 1015.3mb 50f 49f
7:00 4.5ft 5s 25 29 mph 1016mb 50f 49f
6:00 4.5ft 5s 25 31 mph 1016.8mb 50f 48f
5:00 4.5ft 5s 27 31 mph 1017.3mb 50f 47f
4:00 4.5ft 5s 25 29 mph 1018.5mb 50f 48f
3:00 4.5ft 5s 22 29 mph 1019mb 50f 48f
2:00 5ft 5s 27 34 mph 1019.4mb 50f 48f
1:00 4.5ft 5s 27 31 mph 1020mb 50f 48f
12:00 4ft 4s 27 31 mph 1020.3mb 50f 48f
11:00 3.5ft 4s 20 25 mph 1020.5mb 50f 47f
10:00 3ft 4s 20 25 mph 1021.6mb 50f 47f
9:00 2ft 3s 22 27 mph 1021.9mb 50f 49f
8:00 1.3ft 3s 18 22 mph 1022.5mb 51f 50f
7:00 1ft 2s 11 13 mph 1023.2mb 51f 49f
6:00 1.3ft 3s 13 16 mph 1023.4mb 51f 50f
5:00 1.3ft 3s 11 13 mph 1023.7mb 51f 49f
4:00 1.6ft 3s 13 16 mph 1023.9mb 51f 50f
3:00 1.3ft 3s 13 18 mph 1024.4mb 50f 50f
2:00 0.7ft 2s 13
mph
1024.8mb 51f 51f
1:00 0.3ft 2s 13 16 mph 1025.4mb 51f 51f
12:00 0.3ft 2s 9
mph
1025.4mb 51f 52f
vie 04/28 11:00 0.3ft 2s 9 11 mph 1025.2mb 52f 52f
10:00 0.3ft 3s 7 9 mph 1025.9mb 51f 52f
9:00 0.3ft 3s 7
mph
1025.7mb 52f 53f
8:00 0.3ft 2s 7
mph
1025.5mb 52f 53f
7:00 0.3ft 2s 7
mph
1025.7mb 52f 53f
6:00 0.3ft 2s 4
mph
1026mb 53f 53f
5:00 0.3ft 2s 4 7 mph 1026.4mb 54f 53f
4:00 0.3ft 2s 4 7 mph 1026.9mb 53f 52f
3:00 0.3ft 3s 4
mph
1027.5mb 54f 52f
2:00 0.3ft 3s 4
mph
1027.8mb 54f 51f
1:00 0.3ft 4s 2
mph
1027.9mb 54f 51f
12:00 0.3ft 4s 4
mph
1027.9mb 52f 49f
11:00 0.3ft 5s 2
mph
1027.7mb 51f 49f
10:00 0.7ft 2s 4 7 mph 1027.4mb 50f 48f
9:00 0.7ft 2s 9 11 mph 1027.1mb 50f 47f
8:00 1ft 2s 9 11 mph 1026.5mb 50f 46f
7:00 1ft 2s 13
mph
1025.7mb 50f 46f
6:00 1.3ft 2s 13 16 mph 1025.3mb 50f 46f
5:00 1.3ft 3s 16 18 mph 1025mb 50f 46f
4:00 1.6ft 3s 18 20 mph 1024.5mb 50f 47f
3:00 1.6ft 3s 18 20 mph 1023.8mb 50f 47f
2:00 1.3ft 2s 18 20 mph 1023.3mb 50f 48f
1:00 1.3ft 3s 18 20 mph 1023mb 50f 48f
12:00 1.3ft 3s 16 18 mph 1022.2mb 50f 49f
jue 04/27 11:00 1.3ft 3s 18 20 mph 1021.7mb 51f 49f
10:00 1.6ft 4s 13 18 mph 1021.3mb 51f 50f
9:00 2.5ft 4s 18 20 mph 1020.2mb 51f 51f
8:00 2ft 4s 22 27 mph 1019.2mb 51f 52f
7:00 1.3ft 2s 20 25 mph 1018.6mb 52f 53f
6:00 0.3ft 3s 13 22 mph 1018.3mb 52f 54f
5:00 0.3ft 3s 7 11 mph 1018.3mb 52f 53f
4:00 0.3ft 2s 2
mph
1018.3mb 53f 53f
3:00 0.7ft 2s 13 18 mph 1018.7mb 52f 50f
2:00 0.7ft 2s 20 25 mph 1018.3mb 52f 49f
1:00 0.3ft 2s 7 9 mph 1018.2mb 52f 51f
12:00 0.3ft 2s 7 9 mph 1017.9mb 52f 51f
11:00 0.3ft 2s 4 7 mph 1017.8mb 51f 49f
10:00 0.7ft 2s 2 4 mph 1017.6mb 51f 48f
9:00 0.7ft 3s 7 9 mph 1017.4mb 51f 47f
8:00 0.7ft 3s 7 9 mph 1016.8mb 50f 46f
7:00 0.7ft 3s 9 11 mph 1016.3mb 50f 46f
6:00 0.7ft 3s 9 13 mph 1015.8mb 50f 46f
5:00 0.7ft 2s 9 11 mph 1015.6mb 50f 46f
3:00 1ft 3s 11 13 mph 1014.8mb 50f 46f
2:00 1ft 3s 9 11 mph 1014.7mb 50f 47f
1:00 1ft 3s 11 13 mph 1014.2mb 50f 48f
12:00 1ft 3s 13 16 mph 1013.4mb 50f 49f
mié 04/26 11:00 1ft 3s 13 18 mph 1012.9mb 50f 49f
10:00 0.7ft 2s 16 18 mph 1012.6mb 51f 49f
9:00 0.3ft 3s 11 13 mph 1012.1mb 51f 50f
8:00 0.7ft 3s 7 9 mph 1011.3mb 51f 49f
7:00 0.7ft 2s 7 9 mph 1010.9mb 51f 49f
6:00 0.7ft 2s 9 13 mph 1010.6mb 52f 51f
5:00 1.3ft 2s 11 16 mph 1009.7mb 51f 51f
4:00 1.3ft 3s 16 18 mph 1009mb 51f 50f
3:00 0.3ft 3s 20 25 mph 1008.4mb 52f 50f
2:00 0.3ft 3s 4 7 mph 1008.2mb 51f 52f
1:00 0.3ft 3s 13 22 mph 1007.8mb 51f 52f
12:00 0.3ft 4s 7
mph
1007.8mb 52f 49f
11:00 0.7ft 3s 4
mph
1007.3mb 51f 51f